createdAt,value
2017-07-18T00:01:42.674Z,6.40
2017-07-18T00:04:14.593Z,6.70
2017-07-18T00:06:46.067Z,7.70
2017-07-18T00:09:17.554Z,7.37
2017-07-18T00:11:49.241Z,6.50
2017-07-18T00:14:25.332Z,7.50
2017-07-18T00:16:57.495Z,7.00
2017-07-18T00:19:28.956Z,7.50
2017-07-18T00:22:00.538Z,7.90
2017-07-18T00:24:33.738Z,7.53
2017-07-18T00:27:06.364Z,6.07
2017-07-18T00:29:38.552Z,6.93
2017-07-18T00:32:11.530Z,7.10
2017-07-18T00:34:43.374Z,6.97
2017-07-18T00:37:14.815Z,7.80
2017-07-18T00:39:47.874Z,8.00
2017-07-18T00:42:26.581Z,7.00
2017-07-18T00:44:58.452Z,6.80
2017-07-18T00:47:30.355Z,6.30
2017-07-18T00:50:02.267Z,7.07
2017-07-18T00:52:33.792Z,7.10
2017-07-18T00:55:06.481Z,6.80
2017-07-18T00:57:37.983Z,5.47
2017-07-18T01:00:10.615Z,5.60
2017-07-18T01:02:42.385Z,5.70
2017-07-18T01:05:13.770Z,6.13
2017-07-18T01:07:45.464Z,5.50
2017-07-18T01:10:16.818Z,6.13
2017-07-18T01:12:48.868Z,5.40
2017-07-18T01:15:23.584Z,5.63
2017-07-18T01:17:55.151Z,4.50
2017-07-18T01:20:28.152Z,5.60
2017-07-18T01:22:59.534Z,4.73
2017-07-18T01:25:31.037Z,4.97
2017-07-18T01:28:02.870Z,5.17
2017-07-18T01:30:35.439Z,5.10
2017-07-18T01:33:07.874Z,5.13
2017-07-18T01:35:40.716Z,5.03
2017-07-18T01:38:12.299Z,4.20
2017-07-18T01:40:44.021Z,5.33
2017-07-18T01:43:16.843Z,4.40
2017-07-18T01:45:48.801Z,4.10
2017-07-18T01:48:23.118Z,4.97
2017-07-18T01:50:54.852Z,4.10
2017-07-18T01:53:27.992Z,3.70
2017-07-18T01:56:00.012Z,4.10
2017-07-18T01:58:31.865Z,4.20
2017-07-18T02:01:04.717Z,3.83
2017-07-18T02:03:38.314Z,3.77
2017-07-18T02:06:10.882Z,3.67
2017-07-18T02:08:42.812Z,3.47
2017-07-18T02:11:14.435Z,4.30
2017-07-18T02:13:45.664Z,2.93
2017-07-18T02:16:17.695Z,3.00
2017-07-18T02:18:51.029Z,3.30
2017-07-18T02:21:27.485Z,3.70
2017-07-18T02:24:00.834Z,3.50
2017-07-18T02:26:32.785Z,3.60
2017-07-18T02:29:06.308Z,3.50
2017-07-18T02:31:38.009Z,3.33
2017-07-18T02:34:09.907Z,3.70
2017-07-18T02:36:41.908Z,3.13
2017-07-18T02:39:13.400Z,3.63
2017-07-18T02:41:44.939Z,3.20
2017-07-18T02:44:16.262Z,3.50
2017-07-18T02:46:48.070Z,3.07
2017-07-18T02:49:22.890Z,3.27
2017-07-18T02:51:54.357Z,3.63
2017-07-18T02:54:27.018Z,3.70
2017-07-18T02:56:58.522Z,3.20
2017-07-18T02:59:31.059Z,3.50
2017-07-18T03:02:03.106Z,2.90
2017-07-18T03:04:35.893Z,3.73
2017-07-18T03:07:07.306Z,3.10
2017-07-18T03:09:39.497Z,2.97
2017-07-18T03:12:11.503Z,3.17
2017-07-18T03:14:43.048Z,3.10
2017-07-18T03:17:14.452Z,3.00
2017-07-18T03:19:45.798Z,3.10
2017-07-18T03:24:56.373Z,3.50
2017-07-18T03:27:28.004Z,3.83
2017-07-18T03:29:59.640Z,4.00
2017-07-18T03:32:31.383Z,3.93
2017-07-18T03:35:03.791Z,3.53
2017-07-18T03:37:35.344Z,3.30
2017-07-18T03:40:07.587Z,3.30
2017-07-18T03:42:39.537Z,3.50
2017-07-18T03:45:10.849Z,3.30
2017-07-18T03:47:42.356Z,3.43
2017-07-18T03:50:13.992Z,3.50
2017-07-18T03:52:45.991Z,3.67
2017-07-18T03:55:17.438Z,3.87
2017-07-18T03:57:48.952Z,3.67
2017-07-18T04:00:24.041Z,3.80
2017-07-18T04:02:55.651Z,3.67
2017-07-18T04:05:27.681Z,3.80
2017-07-18T04:08:00.254Z,3.87
2017-07-18T04:10:32.746Z,3.70
2017-07-18T04:13:05.199Z,3.70
2017-07-18T04:15:36.684Z,4.20
2017-07-18T04:18:08.895Z,3.80
2017-07-18T04:20:40.626Z,3.93
2017-07-18T04:23:12.262Z,4.07
2017-07-18T04:25:43.662Z,3.87
2017-07-18T04:28:16.147Z,2.97
2017-07-18T04:30:47.666Z,3.80
2017-07-18T04:33:22.981Z,3.90
2017-07-18T04:35:54.595Z,3.70
2017-07-18T04:38:27.880Z,3.77
2017-07-18T04:40:59.710Z,4.50
2017-07-18T04:43:31.171Z,3.50
2017-07-18T04:46:03.592Z,3.50
2017-07-18T04:48:36.902Z,3.03
2017-07-18T04:51:08.492Z,3.53
2017-07-18T04:53:41.196Z,3.47
2017-07-18T04:56:12.970Z,3.93
2017-07-18T04:58:44.989Z,3.83
2017-07-18T05:01:16.827Z,4.20
2017-07-18T05:03:49.761Z,4.07
2017-07-18T05:06:24.468Z,3.83
2017-07-18T05:08:56.233Z,4.37
2017-07-18T05:11:28.427Z,3.73
2017-07-18T05:14:01.401Z,3.73
2017-07-18T05:16:33.161Z,3.80
2017-07-18T05:19:05.303Z,3.80
2017-07-18T05:21:38.923Z,3.70
2017-07-18T05:24:10.438Z,4.03
2017-07-18T05:26:41.827Z,3.60
2017-07-18T05:29:13.770Z,3.60
2017-07-18T05:31:46.993Z,3.60
2017-07-18T05:34:18.694Z,3.33
2017-07-18T05:36:50.449Z,4.03
2017-07-18T05:39:21.801Z,3.30
2017-07-18T05:41:53.173Z,3.50
2017-07-18T05:44:25.338Z,3.60
2017-07-18T05:46:56.611Z,3.20
2017-07-18T05:49:29.577Z,3.50
2017-07-18T05:52:00.917Z,3.50
2017-07-18T05:54:33.698Z,3.83
2017-07-18T05:57:06.452Z,3.23
2017-07-18T05:59:38.134Z,2.90
2017-07-18T06:02:09.665Z,3.03
2017-07-18T06:04:45.692Z,3.10
2017-07-18T06:07:17.930Z,3.37
2017-07-18T06:09:49.801Z,3.27
2017-07-18T06:12:21.235Z,3.77
2017-07-18T06:14:53.840Z,3.20
2017-07-18T06:17:25.565Z,3.80
2017-07-18T06:19:56.871Z,3.20
2017-07-18T06:22:29.986Z,3.67
2017-07-18T06:25:01.158Z,3.80
2017-07-18T06:27:32.412Z,3.40
2017-07-18T06:30:05.941Z,3.40
2017-07-18T06:32:37.214Z,3.40
2017-07-18T06:35:08.499Z,3.60
2017-07-18T06:37:40.146Z,3.20
2017-07-18T06:40:12.814Z,3.50
2017-07-18T06:42:46.449Z,2.97
2017-07-18T06:45:46.469Z,2.83
2017-07-18T06:48:21.132Z,3.00
2017-07-18T06:50:53.758Z,4.10
2017-07-18T06:53:26.924Z,4.23
2017-07-18T06:55:58.835Z,3.47
2017-07-18T06:58:34.375Z,3.50
2017-07-18T07:01:07.725Z,4.07
2017-07-18T07:03:42.387Z,3.70
2017-07-18T07:06:14.674Z,4.00
2017-07-18T07:08:46.867Z,3.40
2017-07-18T07:11:18.697Z,3.63
2017-07-18T07:13:51.172Z,3.90
2017-07-18T07:16:23.446Z,3.83
2017-07-18T07:18:56.234Z,3.93
2017-07-18T07:21:29.476Z,4.37
2017-07-18T07:24:02.350Z,4.23
2017-07-18T07:26:35.957Z,3.90
2017-07-18T07:29:08.393Z,3.97
2017-07-18T07:31:40.299Z,3.80
2017-07-18T07:34:19.488Z,4.20
2017-07-18T07:36:50.713Z,4.03
2017-07-18T07:39:23.454Z,3.67
2017-07-18T07:41:56.629Z,3.70
2017-07-18T07:44:28.638Z,4.40
2017-07-18T07:46:59.835Z,3.77
2017-07-18T07:49:32.231Z,3.73
2017-07-18T07:52:03.765Z,4.30
2017-07-18T07:54:35.011Z,3.90
2017-07-18T07:57:06.614Z,4.30
2017-07-18T07:59:39.025Z,3.70
2017-07-18T08:02:12.276Z,3.90
2017-07-18T08:04:43.552Z,4.20
2017-07-18T08:07:15.114Z,4.07
2017-07-18T08:09:47.731Z,3.70
2017-07-18T08:12:19.326Z,4.40
2017-07-18T08:17:31.635Z,3.37
2017-07-18T08:30:06.431Z,4.90
2017-07-18T08:32:38.767Z,4.63
2017-07-18T08:35:10.616Z,4.50
2017-07-18T08:37:42.658Z,5.20
2017-07-18T08:40:15.818Z,5.77
2017-07-18T08:42:47.981Z,6.03
2017-07-18T08:45:19.330Z,4.27
2017-07-18T08:47:50.745Z,4.93
2017-07-18T08:50:22.340Z,4.90
2017-07-18T08:52:54.397Z,5.27
2017-07-18T08:55:31.985Z,5.20
2017-07-18T08:58:03.657Z,5.20
2017-07-18T09:00:35.033Z,4.37
2017-07-18T09:03:06.262Z,5.63
2017-07-18T09:05:37.866Z,4.30
2017-07-18T09:08:09.470Z,5.77
2017-07-18T09:10:40.944Z,4.77
2017-07-18T09:13:13.928Z,4.13
2017-07-18T09:15:47.153Z,5.10
2017-07-18T09:18:18.737Z,4.23
2017-07-18T09:20:50.166Z,4.13
2017-07-18T09:23:23.684Z,5.50
2017-07-18T09:25:57.481Z,5.50
2017-07-18T09:28:29.829Z,5.00
2017-07-18T09:31:01.413Z,5.63
2017-07-18T09:33:33.277Z,5.57
2017-07-18T09:36:05.583Z,5.65
2017-07-18T09:38:58.311Z,5.67
2017-07-18T09:41:31.616Z,5.57
2017-07-18T09:44:04.054Z,4.70
2017-07-18T09:46:50.141Z,5.67
2017-07-18T09:49:27.491Z,5.63
2017-07-18T09:52:06.638Z,6.20
2017-07-18T09:54:38.326Z,5.00
2017-07-18T09:59:39.382Z,4.40
2017-07-18T10:02:10.968Z,4.10
2017-07-18T10:09:42.047Z,4.83
2017-07-18T10:12:13.238Z,4.20
2017-07-18T10:14:44.608Z,3.87
2017-07-18T10:17:16.311Z,4.60
2017-07-18T10:22:17.395Z,5.00
2017-07-18T10:24:48.789Z,4.17
2017-07-18T10:27:20.758Z,4.10
2017-07-18T10:29:52.668Z,4.33
2017-07-18T10:32:23.885Z,3.87
2017-07-18T10:34:55.818Z,3.93
2017-07-18T10:37:27.586Z,4.97
2017-07-18T10:39:58.918Z,4.80
2017-07-18T10:42:30.596Z,4.77
2017-07-18T10:45:02.315Z,6.70
2017-07-18T10:47:37.542Z,5.17
2017-07-18T10:50:16.915Z,4.67
2017-07-18T10:52:48.055Z,4.90
2017-07-18T10:55:19.863Z,4.43
2017-07-18T11:07:57.136Z,4.33
2017-07-18T11:10:29.113Z,4.80
2017-07-18T11:15:29.895Z,4.63
2017-07-18T11:18:01.601Z,4.60
2017-07-18T11:20:32.759Z,3.60
2017-07-18T11:23:04.178Z,4.87
2017-07-18T11:25:36.862Z,4.82
2017-07-18T11:28:08.296Z,3.93
2017-07-18T11:48:09.723Z,4.60
2017-07-18T11:50:40.853Z,4.90
2017-07-18T11:53:13.290Z,3.80
2017-07-18T12:00:44.366Z,3.80
2017-07-18T12:03:15.606Z,4.17
2017-07-18T12:05:46.905Z,4.47
2017-07-18T12:08:18.068Z,4.97
2017-07-18T12:10:49.682Z,3.50
2017-07-18T12:13:21.027Z,3.70
2017-07-18T12:15:52.774Z,3.13
2017-07-18T12:18:32.128Z,3.27
2017-07-18T12:21:05.897Z,4.20
2017-07-18T12:23:37.554Z,3.15
2017-07-18T12:26:08.782Z,3.83
2017-07-18T12:28:39.989Z,4.15
2017-07-18T12:31:11.716Z,3.72
2017-07-18T12:33:43.112Z,4.05
2017-07-18T12:36:14.645Z,4.15
2017-07-18T12:51:16.369Z,3.87
2017-07-18T12:53:47.638Z,4.10
2017-07-18T12:56:19.008Z,3.92
2017-07-18T12:58:51.302Z,4.75
2017-07-18T13:01:23.694Z,4.60
2017-07-18T13:04:57.145Z,4.50
2017-07-18T13:20:27.664Z,5.00
2017-07-18T13:23:00.841Z,4.17
2017-07-18T13:25:32.396Z,4.17
2017-07-18T13:28:05.829Z,3.90
2017-07-18T13:30:37.544Z,4.00
2017-07-18T13:33:09.741Z,3.93
2017-07-18T13:35:41.730Z,3.70
2017-07-18T13:38:13.954Z,3.67
2017-07-18T13:43:15.770Z,3.10
2017-07-18T13:45:47.211Z,3.40
2017-07-18T13:48:18.597Z,3.70
2017-07-18T13:58:20.524Z,4.17
2017-07-18T14:00:51.771Z,3.50
2017-07-18T14:03:23.467Z,3.60
2017-07-18T14:05:54.821Z,3.40
2017-07-18T14:08:26.207Z,3.60
2017-07-18T14:23:27.499Z,3.40
2017-07-18T14:26:00.362Z,3.57
2017-07-18T14:31:04.953Z,3.90
2017-07-18T14:33:36.275Z,3.83
2017-07-18T14:36:08.134Z,4.13
2017-07-18T14:38:39.646Z,3.80
2017-07-18T14:41:11.082Z,4.10
2017-07-18T14:43:42.807Z,4.10
2017-07-18T14:48:46.045Z,4.23
2017-07-18T14:51:17.787Z,3.60
2017-07-18T14:53:49.875Z,3.53
2017-07-18T14:56:21.147Z,3.50
2017-07-18T14:58:53.181Z,4.07
2017-07-18T15:01:24.572Z,4.07
2017-07-18T15:03:56.046Z,3.60
2017-07-18T15:06:27.444Z,4.20
2017-07-18T15:09:02.528Z,3.60
2017-07-18T15:11:34.705Z,4.07
2017-07-18T15:14:07.107Z,3.93
2017-07-18T15:16:42.289Z,4.27
2017-07-18T15:19:13.714Z,4.67
2017-07-18T15:21:45.424Z,3.63
2017-07-18T15:24:17.528Z,4.47
2017-07-18T15:26:49.139Z,4.40
2017-07-18T15:29:20.835Z,4.23
2017-07-18T15:31:52.132Z,4.03
2017-07-18T15:34:26.637Z,4.30
2017-07-18T15:37:00.438Z,4.63
2017-07-18T15:39:31.853Z,3.90
2017-07-18T15:42:06.227Z,4.07
2017-07-18T15:44:42.040Z,4.37
2017-07-18T15:47:13.352Z,5.17
2017-07-18T15:49:44.513Z,4.67
2017-07-18T15:52:19.572Z,4.67
2017-07-18T15:54:55.185Z,5.03
2017-07-18T15:57:26.960Z,4.10
2017-07-18T15:59:59.041Z,4.27
2017-07-18T16:02:30.330Z,4.60
2017-07-18T16:05:02.092Z,4.27
2017-07-18T16:07:33.331Z,4.10
2017-07-18T16:10:05.308Z,4.20
2017-07-18T16:12:36.878Z,4.60
2017-07-18T16:15:08.284Z,3.70
2017-07-18T16:17:39.620Z,4.10
2017-07-18T16:20:11.347Z,4.00
2017-07-18T16:22:42.545Z,4.30
2017-07-18T16:25:13.995Z,3.77
2017-07-18T16:27:45.960Z,4.10
2017-07-18T16:30:17.350Z,4.60
2017-07-18T16:32:48.915Z,4.40
2017-07-18T16:35:20.451Z,4.60
2017-07-18T16:37:52.264Z,4.80
2017-07-18T16:40:24.246Z,4.97
2017-07-18T16:42:55.587Z,5.40
2017-07-18T16:45:27.239Z,5.10
2017-07-18T16:48:00.769Z,4.70
2017-07-18T16:50:32.157Z,4.97
2017-07-18T16:53:03.730Z,5.23
2017-07-18T16:55:34.957Z,5.43
2017-07-18T16:58:06.376Z,4.77
2017-07-18T17:00:38.032Z,5.60
2017-07-18T17:03:10.156Z,4.20
2017-07-18T17:05:41.703Z,4.27
2017-07-18T17:08:13.346Z,4.70
2017-07-18T17:10:44.715Z,4.00
2017-07-18T17:13:17.157Z,4.60
2017-07-18T17:15:48.586Z,4.67
2017-07-18T17:18:19.931Z,4.23
2017-07-18T17:20:51.911Z,4.20
2017-07-18T17:23:23.176Z,4.70
2017-07-18T17:25:54.432Z,4.40
2017-07-18T17:28:26.048Z,5.00
2017-07-18T17:30:57.372Z,4.40
2017-07-18T17:33:31.706Z,4.67
2017-07-18T17:36:05.414Z,4.13
2017-07-18T17:38:38.675Z,4.63
2017-07-18T17:41:10.157Z,5.40
2017-07-18T17:43:41.764Z,5.13
2017-07-18T17:46:13.165Z,5.07
2017-07-18T17:48:44.818Z,4.80
2017-07-18T17:51:16.303Z,4.30
2017-07-18T17:53:47.514Z,4.80
2017-07-18T17:56:19.267Z,5.60
2017-07-18T17:58:50.488Z,4.80
2017-07-18T18:01:21.910Z,5.20
2017-07-18T18:03:53.660Z,4.70
2017-07-18T18:06:25.180Z,5.30
2017-07-18T18:08:56.970Z,5.00
2017-07-18T18:11:28.367Z,4.70
2017-07-18T18:13:59.640Z,4.53
2017-07-18T18:16:31.529Z,4.23
2017-07-18T18:19:08.052Z,4.93
2017-07-18T18:21:39.810Z,4.80
2017-07-18T18:24:12.137Z,5.07
2017-07-18T18:26:43.509Z,4.43
2017-07-18T18:29:15.045Z,4.97
2017-07-18T18:31:50.758Z,4.60
2017-07-18T18:34:22.024Z,4.77
2017-07-18T18:36:53.430Z,4.77
2017-07-18T18:39:25.521Z,4.70
2017-07-18T18:41:57.125Z,4.60
2017-07-18T18:44:28.518Z,5.07
2017-07-18T18:47:02.291Z,4.80
2017-07-18T18:49:33.835Z,5.53
2017-07-18T18:52:05.435Z,4.63
2017-07-18T18:54:37.537Z,5.83
2017-07-18T18:57:09.979Z,4.90
2017-07-18T18:59:41.582Z,4.90
2017-07-18T19:02:14.402Z,5.60
2017-07-18T19:04:46.543Z,5.47
2017-07-18T19:07:21.752Z,5.43
2017-07-18T19:09:53.494Z,5.40
2017-07-18T19:12:29.535Z,5.43
2017-07-18T19:15:02.786Z,4.80
2017-07-18T19:17:34.366Z,5.33
2017-07-18T19:20:06.262Z,6.17
2017-07-18T19:22:37.690Z,5.30
2017-07-18T19:25:11.988Z,5.63
2017-07-18T19:27:44.969Z,5.40
2017-07-18T19:30:17.695Z,5.87
2017-07-18T19:32:49.023Z,5.73
2017-07-18T19:35:20.877Z,5.30
2017-07-18T19:37:53.600Z,5.53
2017-07-18T19:40:25.405Z,5.03
2017-07-18T19:42:57.277Z,5.27
2017-07-18T19:45:29.154Z,4.50
2017-07-18T19:48:03.222Z,5.27
2017-07-18T19:50:36.100Z,4.93
2017-07-18T19:53:08.484Z,5.37
2017-07-18T19:55:41.716Z,4.93
2017-07-18T19:58:13.738Z,5.30
2017-07-18T20:00:45.716Z,5.50
2017-07-18T20:03:17.839Z,5.17
2017-07-18T20:05:49.598Z,4.83
2017-07-18T20:08:21.761Z,5.47
2017-07-18T20:10:53.544Z,4.83
2017-07-18T20:13:25.281Z,6.07
2017-07-18T20:15:56.571Z,5.73
2017-07-18T20:18:28.080Z,6.03
2017-07-18T20:20:59.599Z,5.97
2017-07-18T20:23:30.778Z,6.20
2017-07-18T20:26:04.528Z,5.97
2017-07-18T20:28:35.833Z,5.73
2017-07-18T20:31:07.912Z,7.37
2017-07-18T20:33:40.477Z,6.40
2017-07-18T20:36:11.954Z,6.20
2017-07-18T20:38:43.520Z,6.47
2017-07-18T20:41:15.494Z,6.33
2017-07-18T20:43:46.845Z,4.77
2017-07-18T20:46:18.465Z,5.90
2017-07-18T20:48:50.020Z,5.87
2017-07-18T20:51:21.462Z,5.60
2017-07-18T20:53:53.879Z,5.33
2017-07-18T20:56:25.608Z,5.43
2017-07-18T20:58:57.146Z,5.03
2017-07-18T21:01:28.860Z,4.97
2017-07-18T21:04:00.130Z,4.97
2017-07-18T21:06:31.640Z,6.20
2017-07-18T21:09:08.664Z,5.90
2017-07-18T21:11:40.094Z,6.83
2017-07-18T21:14:12.341Z,6.57
2017-07-18T21:16:44.415Z,6.30
2017-07-18T21:19:15.646Z,7.00
2017-07-18T21:21:47.010Z,7.53
2017-07-18T21:24:18.447Z,6.90
2017-07-18T21:26:50.463Z,6.30
2017-07-18T21:29:22.347Z,7.20
2017-07-18T21:31:53.816Z,7.30
2017-07-18T21:34:25.319Z,7.23
2017-07-18T21:36:57.732Z,6.80
2017-07-18T21:39:29.233Z,7.80
2017-07-18T21:42:03.332Z,7.30
2017-07-18T21:44:34.977Z,6.67
2017-07-18T21:47:10.339Z,6.90
2017-07-18T21:49:41.624Z,8.23
2017-07-18T21:52:13.144Z,6.93
2017-07-18T21:54:44.880Z,7.30
2017-07-18T21:57:16.394Z,7.60
2017-07-18T21:59:47.666Z,6.50
2017-07-18T22:02:19.850Z,6.60
2017-07-18T22:04:51.144Z,7.47
2017-07-18T22:07:22.655Z,7.50
2017-07-18T22:09:54.875Z,6.40
2017-07-18T22:12:27.149Z,7.73
2017-07-18T22:15:01.250Z,7.07
2017-07-18T22:17:33.145Z,7.80
2017-07-18T22:20:06.587Z,7.70
2017-07-18T22:22:40.010Z,7.23
2017-07-18T22:25:11.752Z,7.63
2017-07-18T22:27:43.145Z,7.60
2017-07-18T22:30:14.963Z,7.03
2017-07-18T22:32:46.581Z,7.43
2017-07-18T22:35:17.939Z,7.70
2017-07-18T22:37:49.641Z,7.30
2017-07-18T22:40:20.940Z,8.00
2017-07-18T22:42:52.544Z,7.67
2017-07-18T22:45:24.365Z,7.90
2017-07-18T22:47:56.099Z,8.30
2017-07-18T22:50:28.213Z,8.30
2017-07-18T22:53:02.000Z,7.07
2017-07-18T22:55:33.217Z,7.57
2017-07-18T22:58:06.950Z,8.97
2017-07-18T23:00:38.291Z,8.67
2017-07-18T23:03:09.706Z,7.50
2017-07-18T23:05:41.536Z,7.10
2017-07-18T23:08:13.057Z,7.70
2017-07-18T23:10:44.410Z,6.80
2017-07-18T23:13:16.227Z,8.40
2017-07-18T23:15:47.577Z,8.27
2017-07-18T23:18:19.322Z,9.27
2017-07-18T23:20:51.920Z,9.03
2017-07-18T23:23:23.676Z,8.03
2017-07-18T23:25:55.695Z,8.30
2017-07-18T23:28:28.305Z,8.83
2017-07-18T23:31:02.621Z,8.50
2017-07-18T23:33:34.903Z,8.57
2017-07-18T23:36:06.769Z,9.40
2017-07-18T23:38:38.494Z,7.37
2017-07-18T23:41:10.037Z,8.53
2017-07-18T23:43:41.280Z,8.27
2017-07-18T23:46:13.790Z,8.40
2017-07-18T23:48:45.331Z,8.20
2017-07-18T23:51:16.888Z,7.30
2017-07-18T23:53:48.812Z,8.57
2017-07-18T23:56:20.172Z,8.10
2017-07-18T23:58:52.385Z,8.50
